createdAt,value
2018-06-21T00:00:05.005Z,5.47
2018-06-21T00:02:32.804Z,13.07
2018-06-21T00:05:00.573Z,9.93
2018-06-21T00:07:28.437Z,9.20
2018-06-21T00:09:56.240Z,8.37
2018-06-21T00:12:24.143Z,10.93
2018-06-21T00:14:51.900Z,6.07
2018-06-21T00:17:19.740Z,5.57
2018-06-21T00:19:47.494Z,12.07
2018-06-21T00:22:15.355Z,7.50
2018-06-21T00:24:43.148Z,8.60
2018-06-21T00:27:10.904Z,10.30
2018-06-21T00:29:38.578Z,8.70
2018-06-21T00:32:06.380Z,5.57
2018-06-21T00:34:34.144Z,7.43
2018-06-21T00:37:01.961Z,8.87
2018-06-21T00:39:29.652Z,6.73
2018-06-21T00:41:57.457Z,8.50
2018-06-21T00:44:25.260Z,14.93
2018-06-21T00:46:53.041Z,8.20
2018-06-21T00:49:20.833Z,16.70
2018-06-21T00:51:48.586Z,12.40
2018-06-21T00:54:16.387Z,12.13
2018-06-21T00:56:44.156Z,9.97
2018-06-21T00:59:11.941Z,9.03
2018-06-21T01:01:39.729Z,7.93
2018-06-21T01:04:07.543Z,10.50
2018-06-21T01:06:35.344Z,10.17
2018-06-21T01:09:03.731Z,8.53
2018-06-21T01:11:31.408Z,12.53
2018-06-21T01:13:59.172Z,7.43
2018-06-21T01:16:27.012Z,7.20
2018-06-21T01:18:54.896Z,6.83
2018-06-21T01:21:22.713Z,4.93
2018-06-21T01:23:50.481Z,7.40
2018-06-21T01:26:18.241Z,10.53
2018-06-21T01:28:46.009Z,7.97
2018-06-21T01:31:13.783Z,8.30
2018-06-21T01:33:41.538Z,13.23
2018-06-21T01:36:09.320Z,7.00
2018-06-21T01:38:37.036Z,7.07
2018-06-21T01:41:04.784Z,6.20
2018-06-21T01:43:32.532Z,6.10
2018-06-21T01:46:00.152Z,8.17
2018-06-21T01:48:27.878Z,9.20
2018-06-21T01:50:55.613Z,12.53
2018-06-21T01:53:23.347Z,9.87
2018-06-21T01:55:51.080Z,10.53
2018-06-21T01:58:18.836Z,6.80
2018-06-21T02:00:46.573Z,10.47
2018-06-21T02:03:14.362Z,10.63
2018-06-21T02:05:42.105Z,7.37
2018-06-21T02:08:09.872Z,6.60
2018-06-21T02:10:37.635Z,7.00
2018-06-21T02:13:05.378Z,9.50
2018-06-21T02:15:33.102Z,8.60
2018-06-21T02:18:00.859Z,9.20
2018-06-21T02:20:28.589Z,12.80
2018-06-21T02:22:56.346Z,9.03
2018-06-21T02:25:24.119Z,10.93
2018-06-21T02:27:51.863Z,16.40
2018-06-21T02:30:19.608Z,8.60
2018-06-21T02:32:47.355Z,7.87
2018-06-21T02:35:15.085Z,9.73
2018-06-21T02:37:42.864Z,8.40
2018-06-21T02:40:10.591Z,10.93
2018-06-21T02:42:38.327Z,11.03
2018-06-21T02:45:06.118Z,11.43
2018-06-21T02:47:33.871Z,11.53
2018-06-21T02:50:01.640Z,8.33
2018-06-21T02:52:29.394Z,9.70
2018-06-21T02:54:57.237Z,10.07
2018-06-21T02:57:25.080Z,9.67
2018-06-21T02:59:52.831Z,6.30
2018-06-21T03:02:20.481Z,10.80
2018-06-21T03:04:48.191Z,13.07
2018-06-21T03:07:15.928Z,17.13
2018-06-21T03:09:43.574Z,15.07
2018-06-21T03:12:16.919Z,8.23
2018-06-21T03:14:44.679Z,9.70
2018-06-21T03:17:12.473Z,11.33
2018-06-21T03:19:40.237Z,11.40
2018-06-21T03:22:08.029Z,9.47
2018-06-21T03:24:35.786Z,9.37
2018-06-21T03:27:03.848Z,11.73
2018-06-21T03:29:31.559Z,9.23
2018-06-21T03:31:59.189Z,10.23
2018-06-21T03:34:26.923Z,10.27
2018-06-21T03:36:55.057Z,11.73
2018-06-21T03:39:22.893Z,8.87
2018-06-21T03:41:50.660Z,11.10
2018-06-21T03:44:18.383Z,11.60
2018-06-21T03:46:46.123Z,9.07
2018-06-21T03:49:14.016Z,8.90
2018-06-21T03:51:41.783Z,14.77
2018-06-21T03:54:09.541Z,13.47
2018-06-21T03:56:37.316Z,12.47
2018-06-21T03:59:05.105Z,11.33
2018-06-21T04:01:32.880Z,12.93
2018-06-21T04:04:00.635Z,14.17
2018-06-21T04:06:28.417Z,13.20
2018-06-21T04:08:56.182Z,9.00
2018-06-21T04:11:23.827Z,8.97
2018-06-21T04:13:51.477Z,10.67
2018-06-21T04:16:19.568Z,10.07
2018-06-21T04:18:47.315Z,12.60
2018-06-21T04:21:15.079Z,8.20
2018-06-21T04:23:42.864Z,11.17
2018-06-21T04:26:10.486Z,10.50
2018-06-21T04:28:38.233Z,9.50
2018-06-21T04:31:05.957Z,7.77
2018-06-21T04:33:33.579Z,8.77
2018-06-21T04:36:01.375Z,10.90
2018-06-21T04:38:29.127Z,17.63
2018-06-21T04:40:56.901Z,9.47
2018-06-21T04:43:24.692Z,10.33
2018-06-21T04:45:52.485Z,10.60
2018-06-21T04:48:20.269Z,9.13
2018-06-21T04:50:48.020Z,6.70
2018-06-21T04:53:16.004Z,7.00
2018-06-21T04:55:43.735Z,7.47
2018-06-21T04:58:11.477Z,6.87
2018-06-21T05:00:39.264Z,8.90
2018-06-21T05:03:06.990Z,10.90
2018-06-21T05:05:34.779Z,13.60
2018-06-21T05:08:02.540Z,19.83
2018-06-21T05:10:30.287Z,10.97
2018-06-21T05:12:57.949Z,19.57
2018-06-21T05:15:25.720Z,14.83
2018-06-21T05:17:53.500Z,27.33
2018-06-21T05:20:21.244Z,17.53
2018-06-21T05:22:49.006Z,16.30
2018-06-21T05:25:16.792Z,16.40
2018-06-21T05:27:44.500Z,17.57
2018-06-21T05:30:12.228Z,17.23
2018-06-21T05:32:39.991Z,19.73
2018-06-21T05:35:07.732Z,16.80
2018-06-21T05:37:35.356Z,13.40
2018-06-21T05:40:03.192Z,16.57
2018-06-21T05:42:30.924Z,16.87
2018-06-21T05:44:58.552Z,11.70
2018-06-21T05:47:26.355Z,17.80
2018-06-21T05:49:54.028Z,11.63
2018-06-21T05:52:21.799Z,11.90
2018-06-21T05:54:49.588Z,15.40
2018-06-21T05:57:17.372Z,13.77
2018-06-21T05:59:45.085Z,11.03
2018-06-21T06:02:12.753Z,10.60
2018-06-21T06:04:40.497Z,12.27
2018-06-21T06:07:08.263Z,13.53
2018-06-21T06:09:35.927Z,13.67
2018-06-21T06:12:03.687Z,13.90
2018-06-21T06:14:31.422Z,15.43
2018-06-21T06:16:59.231Z,15.63
2018-06-21T06:19:27.017Z,15.80
2018-06-21T06:21:54.749Z,17.07
2018-06-21T06:24:22.543Z,21.60
2018-06-21T06:26:50.280Z,24.60
2018-06-21T06:29:18.004Z,24.27
2018-06-21T06:31:45.783Z,23.60
2018-06-21T06:34:13.507Z,23.90
2018-06-21T06:36:41.255Z,24.47
2018-06-21T06:39:19.012Z,24.03
2018-06-21T06:41:48.483Z,28.23
2018-06-21T06:44:16.572Z,31.20
2018-06-21T06:46:44.319Z,27.87
2018-06-21T06:49:12.477Z,25.37
2018-06-21T06:51:40.658Z,33.60
2018-06-21T06:54:09.505Z,27.07
2018-06-21T06:56:37.300Z,23.47
2018-06-21T06:59:05.359Z,26.67
2018-06-21T07:01:33.130Z,25.23
2018-06-21T07:04:00.978Z,25.90
2018-06-21T07:06:28.667Z,22.90
2018-06-21T07:08:57.280Z,23.83
2018-06-21T07:11:26.424Z,24.87
2018-06-21T07:13:54.512Z,21.90
2018-06-21T07:16:22.416Z,23.00
2018-06-21T07:18:50.233Z,23.93
2018-06-21T07:21:18.427Z,22.63
2018-06-21T07:23:46.303Z,22.53
2018-06-21T07:26:14.122Z,21.83
2018-06-21T07:28:42.392Z,19.10
2018-06-21T07:31:10.263Z,23.63
2018-06-21T07:33:39.113Z,20.97
2018-06-21T07:36:06.935Z,25.73
2018-06-21T07:38:34.755Z,18.90
2018-06-21T07:41:02.572Z,17.60
2018-06-21T07:43:30.503Z,17.70
2018-06-21T07:45:58.311Z,20.13
2018-06-21T07:48:25.939Z,23.30
2018-06-21T07:50:53.667Z,22.17
2018-06-21T07:53:21.463Z,21.63
2018-06-21T07:55:49.340Z,14.57
2018-06-21T07:58:17.448Z,19.33
2018-06-21T08:00:45.239Z,15.07
2018-06-21T08:03:13.006Z,15.60
2018-06-21T08:05:40.780Z,14.50
2018-06-21T08:08:08.617Z,17.73
2018-06-21T08:10:36.428Z,16.33
2018-06-21T08:13:04.235Z,14.27
2018-06-21T08:15:31.941Z,16.97
2018-06-21T08:17:59.808Z,15.67
2018-06-21T08:20:27.563Z,16.73
2018-06-21T08:22:55.339Z,13.00
2018-06-21T08:25:23.075Z,18.77
2018-06-21T08:27:50.972Z,14.93
2018-06-21T08:30:18.709Z,13.63
2018-06-21T08:32:46.452Z,16.60
2018-06-21T08:35:14.334Z,11.60
2018-06-21T08:37:42.168Z,11.57
2018-06-21T08:40:09.901Z,10.53
2018-06-21T08:42:37.691Z,9.57
2018-06-21T08:45:05.609Z,10.43
2018-06-21T08:47:33.372Z,12.00
2018-06-21T08:50:01.163Z,5.17
2018-06-21T08:52:28.925Z,7.00
2018-06-21T08:54:56.700Z,5.33
2018-06-21T08:57:24.475Z,7.43
2018-06-21T08:59:52.200Z,4.77
2018-06-21T09:02:20.026Z,7.80
2018-06-21T09:04:47.793Z,4.53
2018-06-21T09:07:15.422Z,5.13
2018-06-21T09:09:43.199Z,6.70
2018-06-21T09:12:10.956Z,4.40
2018-06-21T09:14:38.680Z,7.17
2018-06-21T09:17:06.423Z,4.70
2018-06-21T09:19:34.077Z,6.20
2018-06-21T09:22:01.985Z,5.57
2018-06-21T09:24:29.745Z,7.70
2018-06-21T09:26:57.593Z,11.27
2018-06-21T09:29:25.418Z,6.30
2018-06-21T09:31:53.300Z,7.03
2018-06-21T09:34:21.150Z,7.90
2018-06-21T09:36:48.959Z,16.03
2018-06-21T09:39:22.453Z,10.50
2018-06-21T09:41:55.879Z,7.10
2018-06-21T09:44:28.986Z,13.73
2018-06-21T09:47:02.534Z,6.87
2018-06-21T09:49:31.564Z,11.03
2018-06-21T09:52:01.707Z,9.60
2018-06-21T09:54:29.736Z,7.60
2018-06-21T09:56:57.929Z,8.27
2018-06-21T09:59:25.995Z,6.40
2018-06-21T10:01:53.796Z,6.30
2018-06-21T10:04:21.650Z,6.30
2018-06-21T10:06:49.495Z,2.30
2018-06-21T10:09:17.437Z,8.70
2018-06-21T10:11:45.219Z,8.80
2018-06-21T10:14:12.971Z,14.10
2018-06-21T10:16:40.719Z,7.50
2018-06-21T10:19:08.592Z,10.17
2018-06-21T10:21:36.249Z,7.50
2018-06-21T10:24:04.079Z,6.10
2018-06-21T10:26:31.900Z,16.23
2018-06-21T10:28:59.672Z,9.43
2018-06-21T10:31:27.276Z,11.40
2018-06-21T10:33:55.124Z,17.53
2018-06-21T10:36:22.876Z,4.63
2018-06-21T10:38:50.647Z,6.27
2018-06-21T10:41:18.436Z,6.93
2018-06-21T10:43:46.250Z,7.93
2018-06-21T10:46:14.052Z,11.00
2018-06-21T10:48:41.857Z,6.00
2018-06-21T10:51:09.632Z,5.43
2018-06-21T10:53:37.415Z,5.50
2018-06-21T10:56:05.359Z,10.00
2018-06-21T10:58:33.187Z,5.97
2018-06-21T11:01:01.003Z,11.37
2018-06-21T11:03:28.871Z,4.83
2018-06-21T11:05:56.592Z,8.30
2018-06-21T11:08:24.364Z,9.27
2018-06-21T11:10:52.197Z,24.23
2018-06-21T11:13:19.993Z,8.60
2018-06-21T11:15:47.820Z,11.37
2018-06-21T11:18:15.728Z,9.67
2018-06-21T11:20:43.661Z,15.20
2018-06-21T11:23:11.491Z,7.77
2018-06-21T11:25:39.181Z,3.80
2018-06-21T11:28:07.127Z,7.40
2018-06-21T11:30:34.803Z,3.93
2018-06-21T11:33:02.628Z,6.37
2018-06-21T11:35:30.455Z,6.23
2018-06-21T11:37:58.247Z,5.17
2018-06-21T11:40:26.049Z,3.73
2018-06-21T11:42:53.837Z,8.33
2018-06-21T11:45:21.624Z,10.37
2018-06-21T11:47:49.472Z,6.30
2018-06-21T11:50:17.229Z,3.07
2018-06-21T11:52:44.871Z,4.93
2018-06-21T11:55:12.535Z,4.03
2018-06-21T11:57:40.302Z,4.80
2018-06-21T12:00:08.005Z,9.47
2018-06-21T12:02:35.828Z,5.20
2018-06-21T12:05:03.650Z,4.40
2018-06-21T12:07:31.407Z,9.83
2018-06-21T12:09:59.192Z,8.57
2018-06-21T12:12:26.920Z,9.23
2018-06-21T12:14:54.703Z,8.50
2018-06-21T12:17:22.490Z,11.20
2018-06-21T12:19:50.316Z,5.40
2018-06-21T12:22:18.104Z,2.57
2018-06-21T12:24:45.870Z,4.97
2018-06-21T12:27:13.607Z,5.63
2018-06-21T12:29:41.345Z,20.07
2018-06-21T12:32:09.784Z,7.33
2018-06-21T12:34:38.305Z,6.20
2018-06-21T12:37:06.279Z,2.30
2018-06-21T12:39:34.115Z,13.97
2018-06-21T12:42:01.785Z,6.70
2018-06-21T12:44:29.636Z,19.53
2018-06-21T12:46:57.542Z,7.40
2018-06-21T12:49:25.328Z,5.23
2018-06-21T12:51:53.099Z,4.30
2018-06-21T12:54:20.868Z,3.90
2018-06-21T12:56:48.629Z,7.77
2018-06-21T12:59:17.249Z,3.23
2018-06-21T13:01:45.054Z,5.33
2018-06-21T13:04:12.836Z,11.80
2018-06-21T13:06:40.651Z,4.20
2018-06-21T13:09:19.587Z,5.17
2018-06-21T13:13:02.104Z,5.87
2018-06-21T13:15:29.877Z,9.03
2018-06-21T13:17:57.626Z,6.03
2018-06-21T13:20:25.472Z,3.83
2018-06-21T13:22:53.204Z,2.43
2018-06-21T13:25:20.983Z,5.57
2018-06-21T13:27:48.765Z,6.27
2018-06-21T13:30:16.508Z,5.70
2018-06-21T13:32:44.266Z,5.13
2018-06-21T13:35:12.088Z,7.43
2018-06-21T13:37:39.851Z,4.83
2018-06-21T13:40:07.705Z,5.60
2018-06-21T13:42:35.505Z,5.50
2018-06-21T13:45:03.541Z,6.43
2018-06-21T13:47:31.343Z,7.93
2018-06-21T13:49:59.007Z,4.90
2018-06-21T13:52:26.666Z,6.43
2018-06-21T13:54:54.303Z,5.53
2018-06-21T13:57:22.125Z,6.37
2018-06-21T13:59:49.909Z,10.03
2018-06-21T14:02:17.770Z,6.07
2018-06-21T14:04:45.414Z,2.83
2018-06-21T14:07:13.215Z,7.70
2018-06-21T14:09:40.983Z,4.57
2018-06-21T14:12:08.757Z,10.87
2018-06-21T14:14:36.522Z,10.33
2018-06-21T14:17:04.415Z,3.67
2018-06-21T14:19:32.072Z,11.10
2018-06-21T14:21:59.850Z,11.40
2018-06-21T14:24:27.467Z,7.30
2018-06-21T14:26:55.242Z,4.30
2018-06-21T14:29:23.062Z,6.50
2018-06-21T14:31:50.847Z,4.60
2018-06-21T14:34:18.668Z,4.87
2018-06-21T14:36:46.297Z,9.10
2018-06-21T14:39:14.122Z,7.77
2018-06-21T14:41:41.940Z,7.67
2018-06-21T14:44:09.737Z,5.80
2018-06-21T14:46:37.522Z,8.93
2018-06-21T14:49:05.459Z,3.07
2018-06-21T14:51:33.095Z,8.80
2018-06-21T14:54:00.832Z,8.03
2018-06-21T14:56:28.587Z,5.13
2018-06-21T14:58:56.422Z,3.90
2018-06-21T15:01:24.099Z,6.67
2018-06-21T15:03:51.928Z,10.43
2018-06-21T15:06:19.709Z,5.30
2018-06-21T15:08:47.509Z,8.63
2018-06-21T15:11:15.314Z,6.17
2018-06-21T15:13:46.798Z,3.50
2018-06-21T15:16:15.144Z,4.70
2018-06-21T15:18:42.943Z,9.07
2018-06-21T15:21:10.732Z,11.30
2018-06-21T15:23:38.600Z,12.23
2018-06-21T15:26:06.352Z,4.33
2018-06-21T15:28:35.101Z,5.03
2018-06-21T15:31:03.216Z,3.17
2018-06-21T15:33:30.892Z,5.20
2018-06-21T15:35:58.715Z,3.53
2018-06-21T15:38:26.524Z,5.50
2018-06-21T15:40:54.348Z,4.13
2018-06-21T15:43:22.127Z,5.20
2018-06-21T15:45:49.937Z,5.33
2018-06-21T15:48:17.728Z,8.43
2018-06-21T15:50:45.668Z,2.80
2018-06-21T15:53:13.501Z,8.00
2018-06-21T15:55:41.276Z,9.13
2018-06-21T15:58:09.084Z,6.97
2018-06-21T16:00:36.855Z,3.83
2018-06-21T16:03:04.815Z,12.20
2018-06-21T16:05:32.580Z,12.10
2018-06-21T16:08:00.321Z,9.73
2018-06-21T16:10:28.120Z,8.03
2018-06-21T16:12:55.889Z,3.60
2018-06-21T16:15:23.680Z,4.87
2018-06-21T16:17:51.337Z,6.00
2018-06-21T16:20:19.120Z,6.50
2018-06-21T16:22:46.938Z,5.33
2018-06-21T16:25:14.701Z,3.90
2018-06-21T16:27:42.554Z,2.97
2018-06-21T16:30:10.310Z,3.20
2018-06-21T16:32:38.091Z,8.63
2018-06-21T16:35:05.890Z,4.33
2018-06-21T16:37:33.576Z,3.47
2018-06-21T16:40:01.384Z,8.43
2018-06-21T16:42:29.148Z,5.77
2018-06-21T16:44:56.872Z,4.57
2018-06-21T16:47:24.681Z,4.53
2018-06-21T16:49:52.452Z,7.10
2018-06-21T16:52:20.242Z,4.17
2018-06-21T16:54:48.046Z,11.20
2018-06-21T16:57:15.796Z,8.93
2018-06-21T16:59:43.436Z,4.77
2018-06-21T17:02:11.255Z,5.87
2018-06-21T17:04:39.352Z,9.70
2018-06-21T17:07:07.166Z,3.93
2018-06-21T17:09:34.984Z,3.10
2018-06-21T17:12:02.788Z,8.83
2018-06-21T17:14:30.636Z,4.60
2018-06-21T17:16:58.429Z,14.57
2018-06-21T17:19:26.218Z,5.83
2018-06-21T17:21:54.100Z,4.30
2018-06-21T17:24:21.953Z,2.63
2018-06-21T17:26:49.815Z,4.93
2018-06-21T17:29:17.661Z,3.40
2018-06-21T17:31:45.449Z,15.73
2018-06-21T17:34:13.216Z,4.33
2018-06-21T17:36:41.314Z,4.40
2018-06-21T17:39:09.968Z,4.93
2018-06-21T17:41:37.763Z,5.43
2018-06-21T17:44:05.556Z,6.43
2018-06-21T17:46:33.341Z,4.40
2018-06-21T17:49:01.202Z,4.57
2018-06-21T17:51:29.098Z,2.90
2018-06-21T17:53:56.871Z,5.13
2018-06-21T17:56:24.643Z,3.70
2018-06-21T17:58:52.417Z,3.93
2018-06-21T18:01:20.180Z,4.60
2018-06-21T18:03:47.928Z,7.03
2018-06-21T18:06:15.728Z,5.57
2018-06-21T18:08:43.507Z,8.00
2018-06-21T18:11:11.308Z,4.37
2018-06-21T18:13:39.157Z,3.10
2018-06-21T18:16:06.900Z,8.10
2018-06-21T18:18:34.668Z,2.30
2018-06-21T18:21:02.416Z,4.40
2018-06-21T18:23:30.204Z,3.20
2018-06-21T18:25:58.020Z,8.13
2018-06-21T18:28:25.836Z,5.00
2018-06-21T18:30:53.491Z,4.20
2018-06-21T18:33:21.275Z,4.87
2018-06-21T18:35:49.104Z,5.53
2018-06-21T18:38:16.896Z,4.40
2018-06-21T18:40:44.836Z,6.07
2018-06-21T18:43:12.895Z,5.00
2018-06-21T18:45:40.759Z,4.53
2018-06-21T18:48:08.593Z,5.77
2018-06-21T18:50:36.456Z,2.93
2018-06-21T18:53:04.296Z,6.67
2018-06-21T18:55:32.059Z,3.87
2018-06-21T18:57:59.823Z,4.37
2018-06-21T19:00:27.489Z,7.13
2018-06-21T19:02:55.313Z,3.67
2018-06-21T19:05:23.073Z,5.50
2018-06-21T19:07:56.582Z,5.67
2018-06-21T19:10:30.066Z,5.43
2018-06-21T19:12:57.916Z,16.97
2018-06-21T19:15:26.202Z,6.03
2018-06-21T19:17:54.003Z,5.13
2018-06-21T19:20:21.768Z,5.50
2018-06-21T19:22:49.567Z,6.13
2018-06-21T19:25:17.424Z,5.07
2018-06-21T19:27:45.289Z,4.43
2018-06-21T19:30:13.144Z,9.30
2018-06-21T19:32:40.984Z,5.80
2018-06-21T19:35:08.736Z,13.57
2018-06-21T19:37:36.556Z,4.30
2018-06-21T19:40:04.442Z,6.43
2018-06-21T19:42:32.233Z,10.00
2018-06-21T19:45:00.035Z,7.43
2018-06-21T19:47:27.803Z,4.73
2018-06-21T19:49:55.866Z,10.70
2018-06-21T19:52:23.692Z,7.67
2018-06-21T19:54:51.464Z,6.60
2018-06-21T19:57:19.518Z,11.67
2018-06-21T19:59:47.381Z,3.47
2018-06-21T20:02:15.298Z,8.80
2018-06-21T20:04:43.300Z,6.70
2018-06-21T20:07:11.318Z,11.67
2018-06-21T20:09:39.158Z,7.17
2018-06-21T20:12:06.970Z,5.70
2018-06-21T20:14:34.774Z,6.93
2018-06-21T20:17:02.560Z,6.90
2018-06-21T20:19:35.924Z,4.83
2018-06-21T20:22:03.614Z,6.33
2018-06-21T20:24:31.368Z,7.60
2018-06-21T20:26:59.162Z,5.57
2018-06-21T20:29:26.947Z,5.60
2018-06-21T20:31:55.149Z,8.53
2018-06-21T20:34:22.816Z,10.63
2018-06-21T20:36:50.510Z,7.63
2018-06-21T20:39:18.335Z,10.30
2018-06-21T20:41:46.193Z,5.27
2018-06-21T20:44:14.018Z,4.50
2018-06-21T20:46:41.776Z,5.87
2018-06-21T20:49:09.560Z,5.10
2018-06-21T20:51:37.316Z,9.83
2018-06-21T20:54:05.164Z,8.77
2018-06-21T20:56:33.009Z,15.73
2018-06-21T20:59:00.916Z,5.07
2018-06-21T21:01:28.672Z,11.43
2018-06-21T21:03:56.439Z,4.93
2018-06-21T21:06:24.174Z,12.10
2018-06-21T21:08:52.095Z,4.30
2018-06-21T21:11:19.906Z,5.00
2018-06-21T21:13:47.719Z,7.50
2018-06-21T21:16:15.434Z,10.83
2018-06-21T21:18:43.236Z,10.80
2018-06-21T21:21:10.995Z,8.80
2018-06-21T21:23:38.798Z,7.83
2018-06-21T21:26:06.528Z,4.60
2018-06-21T21:28:34.739Z,7.07
2018-06-21T21:31:02.968Z,4.83
2018-06-21T21:33:32.270Z,5.12
2018-06-21T21:36:00.372Z,13.80
2018-06-21T21:38:28.248Z,5.72
2018-06-21T21:40:55.988Z,5.65
2018-06-21T21:43:24.192Z,8.88
2018-06-21T21:45:52.006Z,15.30
2018-06-21T21:48:19.816Z,9.83
2018-06-21T21:50:47.734Z,6.90
2018-06-21T21:53:15.701Z,3.67
2018-06-21T21:55:43.596Z,9.75
2018-06-21T21:58:11.363Z,6.03
2018-06-21T22:00:43.732Z,5.63
2018-06-21T22:03:11.496Z,4.10
2018-06-21T22:05:39.508Z,5.90
2018-06-21T22:08:07.661Z,9.10
2018-06-21T22:10:35.548Z,4.28
2018-06-21T22:13:03.471Z,4.30
2018-06-21T22:15:31.261Z,6.00
2018-06-21T22:17:59.055Z,9.20
2018-06-21T22:20:26.880Z,9.05
2018-06-21T22:22:55.363Z,6.10
2018-06-21T22:25:23.162Z,8.97
2018-06-21T22:27:50.972Z,6.25
2018-06-21T22:30:18.741Z,5.70
2018-06-21T22:32:46.510Z,11.23
2018-06-21T22:35:14.360Z,8.30
2018-06-21T22:37:42.256Z,5.45
2018-06-21T22:40:10.160Z,6.27
2018-06-21T22:42:38.034Z,7.83
2018-06-21T22:45:05.836Z,6.28
2018-06-21T22:47:33.659Z,6.05
2018-06-21T22:50:01.384Z,5.40
2018-06-21T22:52:29.156Z,16.75
2018-06-21T22:54:56.948Z,7.58
2018-06-21T22:57:24.685Z,5.97
2018-06-21T22:59:52.494Z,5.03
2018-06-21T23:02:20.268Z,6.35
2018-06-21T23:04:48.004Z,6.35
2018-06-21T23:07:15.782Z,10.00
2018-06-21T23:09:43.560Z,7.00
2018-06-21T23:12:11.373Z,3.77
2018-06-21T23:14:39.272Z,9.50
2018-06-21T23:17:07.081Z,10.78
2018-06-21T23:19:34.817Z,10.38
2018-06-21T23:22:03.035Z,6.85
2018-06-21T23:24:30.855Z,6.75
2018-06-21T23:26:58.555Z,9.95
2018-06-21T23:29:26.324Z,4.42
2018-06-21T23:31:54.184Z,5.83
2018-06-21T23:34:22.160Z,11.60
2018-06-21T23:36:50.476Z,5.55
2018-06-21T23:39:18.241Z,4.55
2018-06-21T23:41:46.008Z,11.08
2018-06-21T23:44:14.346Z,13.88
2018-06-21T23:46:42.844Z,8.53
2018-06-21T23:49:11.552Z,7.37
2018-06-21T23:51:39.584Z,7.58
2018-06-21T23:54:09.004Z,9.45
2018-06-21T23:56:36.864Z,7.03
2018-06-21T23:59:04.779Z,10.38
